Karup Airport

EKKA · 中日德兰大区, 丹麦

罗盘
风向 的 风向 080° Karup Airport 9L/27R
风: 8 kt, 3 beaufort

8 kt

1 kt
改变
0 ft 2.000 4.000 6.000 8.000 10.000
Cloud Cloud Cloud Cloud
SCT 900
Cloud Cloud Cloud Cloud Cloud Cloud
BKN 6.200
METAR EKKA 032220Z AUTO 08008KT 6000 SCT009/// BKN062/// 07/05 Q1010

METAR Karup Airport - EKKA/KRP

Karup Airport是,丹麦中的中型机场。 该机场位于纬度56,29883和经度9,10821。 该机场有5条跑道: 9L/27R, 14/32, 3/21, 9/27 和 9R/27L. 本场的ICAO机场代码为EKKA。 该机场的IATA代码为KRP。 机场在Kobenhavn FIR中。

该航空气象观测是针对Karup Airport在2024年3月3日 23:20, 当地时间进行的。

机场观察

风向为080°,速度为8 kt。

可见度为6 km。

有疏云,零星散落的云朵在900 ft的高度 和 碎云在6.200 ft的高度。 破损或更高的上限为6.200 ft。

温度为7 °C,阵风为3 °C。 露点为5 °C,相对湿度为87%。 海平面上的气压为1010 hPa (QNH)。

白天

今天,太阳从07:08升起,在18:02降落。 这适用于Karup Airport,世界夏令时可能有所不同。 当地时间与世界标准时间之间的时差为+1 小时。 当前,没有夏令时有效。

公司介绍

我们没有关于这个机场的公司信息。

体会

到Vliegles.nl去找飞行课程,跳伞和其他飞行体验。 浏览页面,了解Karup Airport附近所有可用的活动。 你也可以使用搜索功能来寻找你所在地附近的特定飞行课程、跳伞或其他飞行体验。

跑道

Id 标题 侧风 逆风 侧风 %
9L/27R 090°-270° 1 kt 8 kt 17 %
14/32 134°-314° 6 kt 5 kt 81 %
3/21 034°-214° 6 kt 6 kt 72 %
9/27 089°-269° 1 kt 8 kt 16 %
9R/27L 090°-270° 1 kt 8 kt 17 %

逆风成分最大的方向会被突出显示,并用于横风计算。 这并不一定意味着这个方向在使用。

乌云

900 ft SCT 疏云,零星散落的云朵
6.200 ft BKN 碎云

温度 & 天气

温度 7 °C
露点 5 °C
相对湿度 87%
风寒 3 °C
Kp-index 4 (0-9)

白天

日出
07:08 (7:33)
中午
12:35
日落
18:02

小工具

你想在你的网站上有一个关于Karup Airport的当前航空天气(METAR)的小部件吗?

显示HTML代码
?>